Time;durP1;ratioP1;P1;durP2;ratioP2;P2;SDS_P1;SDS_P2;PMS_P1;PMS_P2;Temp;Humidity;BMP_temperature;BMP_pressure;BME280_temperature;BME280_humidity;BME280_pressure;Samples;Min_cycle;Max_cycle;Signal;HPM_P1;HPM_P2
2021/12/04 00:01:10;;;;;;;3.50;1.30;;;2.30;99.90;;;;;;4970730;28;20382;-88
2021/12/04 00:03:37;;;;;;;3.30;1.27;;;2.30;99.90;;;;;;4992470;28;20018;-88
2021/12/04 00:06:08;;;;;;;2.03;0.87;;;2.20;99.90;;;;;;4993875;28;20026;-89
2021/12/04 00:08:35;;;;;;;5.47;1.23;;;2.30;99.90;;;;;;4979545;28;20065;-88
2021/12/04 00:11:02;;;;;;;3.83;1.00;;;2.30;99.90;;;;;;4957163;28;20089;-88
2021/12/04 00:13:28;;;;;;;2.20;0.93;;;2.30;99.90;;;;;;4974065;28;20077;-87
2021/12/04 00:15:54;;;;;;;7.27;1.20;;;2.30;99.90;;;;;;4977437;28;20046;-86
2021/12/04 00:18:20;;;;;;;3.47;1.00;;;2.30;99.90;;;;;;4960967;28;20034;-88
2021/12/04 00:20:45;;;;;;;3.43;1.00;;;2.40;99.90;;;;;;4977420;28;20037;-87
2021/12/04 00:23:11;;;;;;;3.13;1.10;;;2.20;99.90;;;;;;4960584;28;20031;-88
2021/12/04 00:25:38;;;;;;;5.10;1.43;;;2.30;99.90;;;;;;4993877;28;20110;-88
2021/12/04 00:28:04;;;;;;;2.83;1.07;;;2.30;99.90;;;;;;4976458;28;20081;-88
2021/12/04 00:30:30;;;;;;;4.43;1.30;;;2.20;99.90;;;;;;4984998;28;20101;-88
2021/12/04 00:32:59;;;;;;;3.97;1.53;;;2.30;99.90;;;;;;4956740;28;20423;-88
2021/12/04 00:49:11;;;;;;;3.77;1.47;;;2.20;99.90;;;;;;4982392;28;20375;-87
2021/12/04 00:51:53;;;;;;;4.03;1.23;;;2.30;99.90;;;;;;4976707;28;20034;-88
2021/12/04 00:54:21;;;;;;;3.03;1.10;;;2.30;99.90;;;;;;4978200;28;20031;-87
2021/12/04 00:56:46;;;;;;;3.30;1.40;;;2.20;99.90;;;;;;4990973;28;20490;-87
2021/12/04 00:59:13;;;;;;;2.87;1.10;;;2.20;99.90;;;;;;4998004;28;20030;-88
2021/12/04 01:01:41;;;;;;;4.40;1.23;;;2.20;99.90;;;;;;4993906;28;20680;-84
2021/12/04 01:04:11;;;;;;;2.97;1.00;;;2.50;99.90;;;;;;5000375;28;20026;-88
2021/12/04 01:06:37;;;;;;;3.20;1.10;;;2.30;99.90;;;;;;4982393;28;20044;-88
2021/12/04 01:09:05;;;;;;;3.30;1.13;;;2.40;99.90;;;;;;5002396;28;20086;-88
2021/12/04 01:11:31;;;;;;;2.40;1.00;;;2.30;99.90;;;;;;4980226;28;20403;-87
2021/12/04 01:13:57;;;;;;;3.37;0.97;;;2.30;99.90;;;;;;4990817;28;20102;-87
2021/12/04 01:16:22;;;;;;;2.70;0.90;;;2.30;99.90;;;;;;4992200;28;20395;-88
2021/12/04 01:18:48;;;;;;;1.57;0.77;;;2.30;99.90;;;;;;4997647;28;20038;-88
2021/12/04 01:21:14;;;;;;;2.50;0.87;;;2.30;99.90;;;;;;4992165;28;20125;-87
2021/12/04 01:23:39;;;;;;;3.23;1.00;;;2.20;99.90;;;;;;4999391;28;20046;-86
2021/12/04 01:26:05;;;;;;;3.93;1.10;;;2.30;99.90;;;;;;5003944;28;20015;-88
2021/12/04 01:28:32;;;;;;;2.80;1.00;;;2.30;99.90;;;;;;4996024;28;20094;-88
2021/12/04 01:30:58;;;;;;;2.10;0.90;;;2.40;99.90;;;;;;4996631;28;20077;-87
2021/12/04 01:33:23;;;;;;;3.43;1.10;;;2.20;99.90;;;;;;4988260;28;20031;-88
2021/12/04 01:35:49;;;;;;;2.77;1.20;;;2.20;99.90;;;;;;4976675;28;20030;-87
2021/12/04 01:38:14;;;;;;;2.53;1.00;;;2.10;99.90;;;;;;4978565;28;20035;-88
2021/12/04 01:40:40;;;;;;;1.90;0.77;;;2.10;99.90;;;;;;4987479;28;20030;-87
2021/12/04 01:43:07;;;;;;;3.67;1.60;;;2.20;99.90;;;;;;4990227;28;20086;-87
2021/12/04 01:45:33;;;;;;;3.67;1.20;;;2.10;99.90;;;;;;4985743;28;20080;-86
2021/12/04 01:48:00;;;;;;;2.17;0.80;;;2.00;99.90;;;;;;4983315;28;20128;-86
2021/12/04 01:50:27;;;;;;;3.70;1.10;;;1.90;99.90;;;;;;5001252;28;20030;-86
2021/12/04 01:52:55;;;;;;;3.37;0.87;;;1.90;99.90;;;;;;4979807;28;20103;-87
2021/12/04 01:55:27;;;;;;;1.87;0.80;;;2.10;99.90;;;;;;4981394;28;20038;-87
2021/12/04 01:57:53;;;;;;;3.22;0.90;;;1.90;99.90;;;;;;4991486;28;20046;-88
2021/12/04 02:00:22;;;;;;;3.73;0.97;;;2.10;99.90;;;;;;4987997;28;20031;-88
2021/12/04 02:02:48;;;;;;;4.77;1.10;;;1.90;99.90;;;;;;4980715;28;20073;-88
2021/12/04 02:05:16;;;;;;;2.20;0.77;;;1.90;99.90;;;;;;4982297;28;20106;-88
2021/12/04 02:07:42;;;;;;;3.17;1.10;;;1.90;99.90;;;;;;4983862;28;20108;-88
2021/12/04 02:10:08;;;;;;;3.70;1.00;;;1.80;99.90;;;;;;4981844;28;20031;-87
2021/12/04 02:12:37;;;;;;;3.73;1.30;;;1.80;99.90;;;;;;4978891;28;20037;-88
2021/12/04 02:15:04;;;;;;;2.97;1.00;;;1.80;99.90;;;;;;4979253;28;20038;-88
2021/12/04 02:17:32;;;;;;;2.63;1.23;;;1.70;99.90;;;;;;4977710;28;20047;-87
2021/12/04 02:19:57;;;;;;;2.47;0.90;;;1.70;99.90;;;;;;4975203;28;20034;-87
2021/12/04 02:22:23;;;;;;;2.63;0.90;;;1.80;99.90;;;;;;4975091;28;20476;-87
2021/12/04 02:24:49;;;;;;;4.23;1.37;;;1.60;99.90;;;;;;4989664;28;20723;-88
2021/12/04 02:27:14;;;;;;;1.77;1.00;;;1.70;99.90;;;;;;4996394;28;20030;-88
2021/12/04 02:29:47;;;;;;;3.60;1.40;;;1.60;99.90;;;;;;4982436;28;20038;-87
2021/12/04 02:32:13;;;;;;;3.30;1.27;;;1.60;99.90;;;;;;4988644;28;20038;-88
2021/12/04 02:34:39;;;;;;;3.87;1.30;;;1.50;99.90;;;;;;4979195;28;20038;-88
2021/12/04 02:37:07;;;;;;;4.50;1.40;;;1.70;99.90;;;;;;4974552;28;20041;-89
2021/12/04 02:39:36;;;;;;;3.73;1.47;;;1.60;99.90;;;;;;4976910;28;20030;-88
2021/12/04 02:42:06;;;;;;;4.10;1.30;;;1.60;99.90;;;;;;4976545;28;20097;-87
2021/12/04 02:44:37;;;;;;;4.70;1.60;;;1.60;99.90;;;;;;4974849;28;20111;-89
2021/12/04 02:47:04;;;;;;;4.63;1.90;;;1.60;99.90;;;;;;4974655;28;20552;-88
2021/12/04 02:49:30;;;;;;;5.80;2.03;;;1.50;99.90;;;;;;4979667;28;20034;-87
2021/12/04 02:52:04;;;;;;;3.53;1.67;;;1.40;99.90;;;;;;4994206;28;20494;-89
2021/12/04 02:54:30;;;;;;;4.40;1.50;;;1.40;99.90;;;;;;4987051;28;20035;-88
2021/12/04 02:56:56;;;;;;;3.00;1.40;;;1.40;99.90;;;;;;4975045;28;20030;-86
2021/12/04 02:59:22;;;;;;;5.07;2.03;;;1.40;99.90;;;;;;4976375;28;20015;-88
2021/12/04 03:01:52;;;;;;;6.53;2.57;;;1.40;99.90;;;;;;4973375;28;20033;-86
2021/12/04 03:04:18;;;;;;;6.30;1.90;;;1.40;99.90;;;;;;4975171;28;20604;-88
2021/12/04 03:06:46;;;;;;;6.17;2.13;;;1.30;99.90;;;;;;4974484;28;20023;-87
2021/12/04 03:09:14;;;;;;;5.57;2.10;;;1.40;99.90;;;;;;4977359;28;20074;-87
2021/12/04 03:11:40;;;;;;;5.27;2.03;;;1.40;99.90;;;;;;4986107;28;20023;-87
2021/12/04 03:14:07;;;;;;;7.00;2.00;;;1.40;99.90;;;;;;4975650;28;20106;-87
2021/12/04 03:16:34;;;;;;;5.23;2.30;;;1.40;99.90;;;;;;4957901;28;20030;-87
2021/12/04 03:19:01;;;;;;;5.97;2.57;;;1.40;99.90;;;;;;4975972;28;20046;-87
2021/12/04 03:21:26;;;;;;;6.03;2.10;;;1.40;99.90;;;;;;4962571;28;20050;-87
2021/12/04 03:26:25;;;;;;;6.70;2.40;;;1.40;99.90;;;;;;4994976;28;20080;-88
2021/12/04 03:28:53;;;;;;;6.13;2.20;;;1.50;99.90;;;;;;4977396;28;20034;-88
2021/12/04 03:31:37;;;;;;;5.07;2.03;;;1.60;99.90;;;;;;4990788;28;20031;-88
2021/12/04 03:42:23;;;;;;;5.37;2.13;;;1.70;99.90;;;;;;4975187;28;20065;-88
2021/12/04 03:44:49;;;;;;;5.80;2.30;;;1.60;99.90;;;;;;4975328;28;20058;-88
2021/12/04 03:47:16;;;;;;;7.03;3.00;;;1.70;99.90;;;;;;4957586;28;20042;-88
2021/12/04 03:49:42;;;;;;;8.30;2.37;;;1.70;99.90;;;;;;4958152;28;20057;-88
2021/12/04 03:52:09;;;;;;;8.87;2.60;;;1.70;99.90;;;;;;4966151;28;20495;-87
2021/12/04 03:54:35;;;;;;;5.53;2.07;;;1.60;99.90;;;;;;4993917;28;20413;-87
2021/12/04 03:57:04;;;;;;;6.33;2.73;;;1.70;99.90;;;;;;4982723;28;20109;-88
2021/12/04 03:59:32;;;;;;;6.70;2.80;;;1.60;99.90;;;;;;4957623;28;20026;-87
2021/12/04 04:02:01;;;;;;;5.20;2.17;;;1.60;99.90;;;;;;4957299;28;20497;-88
2021/12/04 04:04:30;;;;;;;6.03;2.37;;;1.70;99.90;;;;;;4957761;28;20030;-88
2021/12/04 04:06:58;;;;;;;6.73;2.60;;;1.60;99.90;;;;;;4957454;28;20037;-88
2021/12/04 04:09:27;;;;;;;8.03;2.70;;;1.70;99.90;;;;;;4973656;28;20023;-87
2021/12/04 04:11:53;;;;;;;5.90;2.40;;;1.70;99.90;;;;;;4956761;28;20464;-88
2021/12/04 04:14:19;;;;;;;5.37;2.00;;;1.70;99.90;;;;;;4984150;28;20030;-88
2021/12/04 04:16:44;;;;;;;8.60;2.83;;;1.70;99.90;;;;;;4974904;28;20027;-88
2021/12/04 04:19:11;;;;;;;5.60;2.50;;;1.70;99.90;;;;;;4974896;28;20033;-88
2021/12/04 04:21:42;;;;;;;7.10;3.07;;;1.80;99.90;;;;;;4973715;28;20026;-88
2021/12/04 04:24:15;;;;;;;6.90;2.77;;;1.70;99.90;;;;;;4965210;28;20023;-88
2021/12/04 04:26:43;;;;;;;5.03;2.20;;;1.70;99.90;;;;;;4993286;28;20022;-88
2021/12/04 04:29:09;;;;;;;8.53;2.80;;;1.60;99.90;;;;;;4975647;28;20032;-87
2021/12/04 04:31:45;;;;;;;6.30;2.50;;;1.70;99.90;;;;;;4978718;28;20080;-89
2021/12/04 04:34:12;;;;;;;5.50;2.30;;;1.70;99.90;;;;;;4991215;28;20499;-88
2021/12/04 05:11:58;;;;;;;6.47;2.13;;;2.10;99.90;;;;;;4977671;28;20050;-88
2021/12/04 05:14:25;;;;;;;7.07;2.13;;;2.00;99.90;;;;;;4995632;23;20076;-86
2021/12/04 05:16:59;;;;;;;5.60;1.97;;;2.00;99.90;;;;;;4964780;28;20043;-88
2021/12/04 05:19:52;;;;;;;5.63;2.63;;;2.10;99.90;;;;;;4972782;28;20034;-87
2021/12/04 05:22:19;;;;;;;5.07;1.87;;;2.40;99.90;;;;;;4972185;28;20031;-87
2021/12/04 05:24:48;;;;;;;5.00;2.03;;;2.10;99.90;;;;;;4975036;28;20038;-87
2021/12/04 05:27:17;;;;;;;5.73;2.53;;;2.00;99.90;;;;;;4975852;28;20593;-88
2021/12/04 05:29:43;;;;;;;3.27;1.33;;;2.20;99.90;;;;;;4973500;28;20030;-88
2021/12/04 05:32:10;;;;;;;4.53;1.20;;;2.40;99.90;;;;;;4956353;28;20046;-87
2021/12/04 05:34:46;;;;;;;4.90;1.47;;;2.40;99.90;;;;;;4943124;28;20067;-87
2021/12/04 05:37:19;;;;;;;3.30;1.20;;;2.30;99.90;;;;;;4944158;29;20548;-88
2021/12/04 05:39:45;;;;;;;3.23;1.13;;;2.50;99.90;;;;;;4975047;28;20372;-86
2021/12/04 05:42:13;;;;;;;3.30;1.07;;;2.40;99.90;;;;;;4973153;28;20038;-85
2021/12/04 05:44:40;;;;;;;4.33;1.60;;;2.40;99.90;;;;;;4954662;28;20126;-87
2021/12/04 05:47:17;;;;;;;3.83;1.23;;;2.60;99.90;;;;;;4954192;29;20058;-87
2021/12/04 05:50:09;;;;;;;2.93;1.17;;;2.40;99.90;;;;;;4955425;28;20468;-87
2021/12/04 06:00:56;;;;;;;8.13;1.30;;;2.60;99.90;;;;;;3905585;23;20618;-85
2021/12/04 06:03:36;;;;;;;2.03;0.97;;;2.70;99.90;;;;;;4974308;28;20027;-86
2021/12/04 06:06:04;;;;;;;4.23;1.20;;;2.70;99.90;;;;;;4973738;28;20117;-86
2021/12/04 06:08:34;;;;;;;2.90;0.90;;;2.90;99.90;;;;;;4976576;28;20031;-87
2021/12/04 06:11:09;;;;;;;3.90;1.30;;;2.80;99.90;;;;;;4969417;28;20031;-87
2021/12/04 06:13:34;;;;;;;2.17;0.90;;;2.70;99.90;;;;;;4972957;28;20157;-87
2021/12/04 06:16:00;;;;;;;3.27;0.97;;;3.10;99.90;;;;;;4972401;28;20122;-87
2021/12/04 06:18:34;;;;;;;5.63;1.27;;;2.90;99.90;;;;;;4969206;28;20031;-87
2021/12/04 06:23:45;;;;;;;2.23;0.87;;;2.80;99.90;;;;;;4959624;28;20042;-86
2021/12/04 06:26:10;;;;;;;2.50;1.00;;;2.80;99.90;;;;;;4972244;28;20480;-85
2021/12/04 06:28:36;;;;;;;6.17;1.03;;;2.90;99.90;;;;;;4971629;28;20402;-85
2021/12/04 06:31:02;;;;;;;3.13;0.90;;;2.90;99.90;;;;;;4969479;28;20023;-85
2021/12/04 06:33:29;;;;;;;2.47;1.10;;;2.90;99.90;;;;;;4954506;28;20038;-85
2021/12/04 06:35:55;;;;;;;1.60;0.53;;;3.00;99.90;;;;;;4967301;28;20404;-88
2021/12/04 06:38:21;;;;;;;3.77;0.60;;;3.00;99.90;;;;;;4953096;29;20530;-87
2021/12/04 06:40:48;;;;;;;2.10;0.80;;;3.20;99.90;;;;;;4966987;28;20147;-87
2021/12/04 06:43:14;;;;;;;0.90;0.50;;;3.20;99.90;;;;;;4973350;28;20172;-87
2021/12/04 06:45:43;;;;;;;2.37;0.70;;;3.30;99.90;;;;;;4972880;28;20033;-87
2021/12/04 06:48:12;;;;;;;1.43;0.50;;;3.30;99.90;;;;;;4972297;28;20045;-85
2021/12/04 06:50:51;;;;;;;2.10;0.50;;;3.30;99.90;;;;;;4973560;28;20026;-87
2021/12/04 06:55:47;;;;;;;1.10;0.33;;;3.40;99.90;;;;;;4953958;29;20039;-87
2021/12/04 06:58:13;;;;;;;1.87;0.70;;;3.50;99.90;;;;;;4952536;28;20042;-87
2021/12/04 07:00:39;;;;;;;1.97;0.40;;;3.60;99.90;;;;;;4957585;28;20109;-87
2021/12/04 07:03:05;;;;;;;1.60;0.40;;;3.60;99.90;;;;;;4968215;28;20031;-87
2021/12/04 07:05:31;;;;;;;1.10;0.30;;;3.60;99.90;;;;;;4953743;28;20031;-87
2021/12/04 07:07:56;;;;;;;1.53;0.40;;;3.80;99.90;;;;;;4954109;28;20114;-87
2021/12/04 07:10:22;;;;;;;2.13;0.77;;;3.70;99.90;;;;;;4968647;28;20038;-87
2021/12/04 07:12:48;;;;;;;0.80;0.30;;;3.70;99.90;;;;;;4953820;28;20038;-86
2021/12/04 07:15:13;;;;;;;2.27;0.50;;;3.70;99.90;;;;;;4953752;29;20087;-85
2021/12/04 07:17:41;;;;;;;1.80;0.50;;;3.70;99.90;;;;;;4967143;28;20073;-85
2021/12/04 07:20:08;;;;;;;2.90;0.60;;;3.70;99.90;;;;;;4971774;28;20456;-85
2021/12/04 07:22:34;;;;;;;1.63;0.30;;;3.70;99.90;;;;;;4967517;28;20396;-85
2021/12/04 07:25:01;;;;;;;3.77;0.70;;;3.70;99.90;;;;;;4968301;28;20035;-85
2021/12/04 07:27:30;;;;;;;0.93;0.30;;;3.80;99.90;;;;;;4972857;28;20184;-85
2021/12/04 07:30:00;;;;;;;2.00;0.53;;;4.10;99.90;;;;;;4967980;28;20047;-84
2021/12/04 07:32:26;;;;;;;1.33;0.40;;;3.80;99.90;;;;;;4967522;28;20050;-85
2021/12/04 07:34:53;;;;;;;1.97;0.30;;;3.90;99.90;;;;;;4953333;29;20372;-84
2021/12/04 07:37:19;;;;;;;1.83;0.40;;;3.90;99.90;;;;;;4968421;28;20522;-85
2021/12/04 07:39:44;;;;;;;2.83;0.47;;;4.00;99.90;;;;;;4969832;28;20022;-85
2021/12/04 07:42:10;;;;;;;1.37;0.37;;;4.00;99.90;;;;;;4970746;28;20034;-85
2021/12/04 07:44:35;;;;;;;0.60;0.20;;;4.00;99.90;;;;;;4971780;28;20034;-85
2021/12/04 07:47:01;;;;;;;0.40;0.20;;;4.10;99.90;;;;;;4969728;28;20054;-85
2021/12/04 07:49:27;;;;;;;0.97;0.30;;;4.10;99.90;;;;;;4968055;28;20027;-84
2021/12/04 07:51:53;;;;;;;1.33;0.30;;;4.20;99.90;;;;;;4950287;28;20027;-86
2021/12/04 07:54:19;;;;;;;0.20;0.10;;;4.30;99.90;;;;;;4970478;28;20023;-86
2021/12/04 07:56:45;;;;;;;0.53;0.10;;;4.30;99.90;;;;;;4970397;28;20057;-86
2021/12/04 07:59:10;;;;;;;0.90;0.30;;;4.50;99.90;;;;;;4970549;28;20031;-86
2021/12/04 08:01:36;;;;;;;0.10;0.03;;;4.30;99.90;;;;;;4968132;28;20081;-86
2021/12/04 08:04:03;;;;;;;0.40;0.20;;;4.40;99.90;;;;;;4967219;28;20037;-86
2021/12/04 08:06:33;;;;;;;0.63;0.13;;;4.50;99.90;;;;;;4962948;28;20057;-86
2021/12/04 08:09:00;;;;;;;0.40;0.10;;;4.50;99.90;;;;;;4969683;28;20041;-86
2021/12/04 08:11:28;;;;;;;0.13;0.10;;;4.70;99.90;;;;;;4950856;29;20134;-86
2021/12/04 08:13:57;;;;;;;0.70;0.10;;;4.80;99.90;;;;;;4951042;28;20081;-87
2021/12/04 08:16:28;;;;;;;0.20;0.10;;;4.60;99.90;;;;;;4969165;28;20670;-85
2021/12/04 08:18:56;;;;;;;2.47;0.20;;;4.90;99.90;;;;;;4956723;28;20026;-84
2021/12/04 08:21:22;;;;;;;0.00;0.00;;;4.90;99.90;;;;;;4974552;28;20027;-84
2021/12/04 08:23:48;;;;;;;0.50;0.00;;;4.90;99.90;;;;;;4973857;28;20046;-86
2021/12/04 08:26:17;;;;;;;0.30;0.10;;;4.70;99.90;;;;;;4990460;28;20026;-84
2021/12/04 08:28:43;;;;;;;0.20;0.00;;;4.70;99.90;;;;;;4986243;28;20031;-85
2021/12/04 08:31:09;;;;;;;0.57;0.10;;;4.80;99.90;;;;;;4972727;28;20365;-84
2021/12/04 08:33:34;;;;;;;0.00;0.00;;;4.80;99.90;;;;;;4970849;28;20078;-87
2021/12/04 08:36:01;;;;;;;0.37;0.10;;;4.90;99.90;;;;;;4962745;28;20050;-86
2021/12/04 08:38:27;;;;;;;0.63;0.17;;;4.90;99.90;;;;;;4967608;28;20027;-87
2021/12/04 08:40:52;;;;;;;0.50;0.10;;;5.00;99.90;;;;;;4958890;28;20118;-85
2021/12/04 08:43:19;;;;;;;0.33;0.10;;;5.00;99.90;;;;;;4968266;28;20066;-85
2021/12/04 08:45:45;;;;;;;0.00;0.00;;;5.00;99.90;;;;;;4967856;28;20018;-85
2021/12/04 08:48:12;;;;;;;0.10;0.00;;;5.10;99.90;;;;;;4962106;28;20106;-85
2021/12/04 08:50:38;;;;;;;0.00;0.00;;;5.10;99.90;;;;;;4956495;28;20078;-85
2021/12/04 08:53:06;;;;;;;0.27;0.03;;;5.20;99.90;;;;;;4964280;28;20019;-85
2021/12/04 08:55:35;;;;;;;0.30;0.03;;;5.20;99.90;;;;;;4966583;28;20030;-86
2021/12/04 08:58:02;;;;;;;0.30;0.10;;;5.20;99.90;;;;;;4970956;28;20058;-85
2021/12/04 09:00:41;;;;;;;0.10;0.00;;;5.20;99.90;;;;;;4974788;28;20042;-85
2021/12/04 09:03:08;;;;;;;0.77;0.20;;;5.20;99.90;;;;;;4972747;28;20030;-86
2021/12/04 09:05:36;;;;;;;0.57;0.10;;;5.30;99.90;;;;;;4970530;28;20029;-85
2021/12/04 09:08:05;;;;;;;0.17;0.00;;;5.30;99.90;;;;;;4972150;28;20031;-85
2021/12/04 09:10:30;;;;;;;0.20;0.10;;;5.40;99.90;;;;;;4970255;28;20042;-85
2021/12/04 09:12:56;;;;;;;0.37;0.10;;;5.40;99.90;;;;;;4968229;28;20026;-85
2021/12/04 09:15:25;;;;;;;0.37;0.10;;;5.40;99.90;;;;;;4970264;28;20145;-85
2021/12/04 09:17:51;;;;;;;0.37;0.17;;;5.40;99.90;;;;;;4969549;28;20715;-85
2021/12/04 09:21:05;;;;;;;0.13;0.10;;;5.50;99.90;;;;;;4968389;28;20034;-85
2021/12/04 09:23:16;;;;;;;2.40;0.20;;;5.60;99.90;;;;;;4963246;28;20096;-85
2021/12/04 09:25:53;;;;;;;0.00;0.00;;;5.50;99.90;;;;;;4968665;28;20015;-85
2021/12/04 09:29:04;;;;;;;0.20;0.00;;;5.60;99.90;;;;;;4952925;29;20419;-85
2021/12/04 10:32:58;;;;;;;0.43;0.10;;;7.20;99.90;;;;;;4986871;28;21655;-86
2021/12/04 10:39:12;;;;;;;1.33;0.10;;;7.70;99.90;;;;;;4970783;28;20838;-87
2021/12/04 10:45:06;;;;;;;0.10;0.00;;;7.50;99.90;;;;;;4975755;28;20086;-87
2021/12/04 10:47:32;;;;;;;0.00;0.00;;;7.40;99.90;;;;;;4954908;28;20034;-87
2021/12/04 10:50:26;;;;;;;0.13;0.10;;;7.40;99.90;;;;;;4970620;28;20026;-87
2021/12/04 10:53:07;;;;;;;0.40;0.10;;;7.60;99.90;;;;;;4958906;28;20061;-86
2021/12/04 10:55:57;;;;;;;1.00;0.10;;;7.50;99.90;;;;;;4951675;28;20031;-87
2021/12/04 11:05:14;;;;;;;0.17;0.10;;;7.70;99.90;;;;;;4923524;29;20887;-87
2021/12/04 11:27:23;;;;;;;1.80;0.00;;;8.00;99.90;;;;;;4973536;28;20045;-85
2021/12/04 11:38:13;;;;;;;0.00;0.00;;;8.20;99.90;;;;;;4982055;28;20034;-87
2021/12/04 11:43:35;;;;;;;0.17;0.00;;;8.20;99.90;;;;;;4960460;28;20031;-88
2021/12/04 11:46:27;;;;;;;0.20;0.07;;;8.20;99.90;;;;;;4949898;28;20027;-86
2021/12/04 11:48:49;;;;;;;0.00;0.00;;;8.20;99.90;;;;;;4953424;28;20031;-87
2021/12/04 11:51:23;;;;;;;0.00;0.00;;;8.20;99.90;;;;;;4936209;28;20395;-86
2021/12/04 11:53:53;;;;;;;0.20;0.10;;;8.20;99.90;;;;;;4940409;28;20585;-87
2021/12/04 11:56:28;;;;;;;0.10;0.03;;;8.20;99.90;;;;;;4942060;28;20031;-87
2021/12/04 11:58:57;;;;;;;0.27;0.10;;;8.30;99.90;;;;;;4936608;28;20059;-87
2021/12/04 12:01:31;;;;;;;0.20;0.10;;;8.30;99.90;;;;;;4953961;28;20385;-87
2021/12/04 12:04:09;;;;;;;0.10;0.00;;;8.30;99.90;;;;;;4937535;28;20034;-86
2021/12/04 12:06:41;;;;;;;0.20;0.03;;;8.40;99.90;;;;;;4939127;28;20031;-87
2021/12/04 12:09:25;;;;;;;0.60;0.10;;;8.40;99.90;;;;;;4935608;29;20773;-87
2021/12/04 12:12:04;;;;;;;0.20;0.10;;;8.40;99.90;;;;;;4933986;28;20148;-87
2021/12/04 12:14:39;;;;;;;0.40;0.10;;;8.40;99.90;;;;;;4935502;28;20032;-87
2021/12/04 12:17:06;;;;;;;0.17;0.07;;;8.40;99.90;;;;;;4951319;28;20150;-87
2021/12/04 12:19:38;;;;;;;0.63;0.10;;;8.40;99.90;;;;;;4939979;28;20118;-88
2021/12/04 12:22:20;;;;;;;0.07;0.00;;;8.40;99.90;;;;;;4929636;28;20103;-87
2021/12/04 12:27:54;;;;;;;0.60;0.10;;;8.40;99.90;;;;;;4956362;28;20570;-86
2021/12/04 12:36:13;;;;;;;0.00;0.00;;;8.50;99.90;;;;;;4953904;28;20050;-87
2021/12/04 12:38:54;;;;;;;0.60;0.13;;;8.40;99.90;;;;;;4941501;28;20038;-86
2021/12/04 12:41:26;;;;;;;0.50;0.20;;;8.50;99.90;;;;;;4951990;28;20037;-87
2021/12/04 12:44:01;;;;;;;0.32;0.10;;;8.40;99.90;;;;;;4956526;28;20082;-87
2021/12/04 12:46:34;;;;;;;0.40;0.10;;;8.40;99.90;;;;;;4949797;28;20078;-86
2021/12/04 12:49:00;;;;;;;0.73;0.10;;;8.40;99.90;;;;;;4956763;28;20090;-88
2021/12/04 12:51:33;;;;;;;0.10;0.10;;;8.30;99.90;;;;;;4952335;28;20046;-86
2021/12/04 12:54:05;;;;;;;0.10;0.10;;;8.30;99.90;;;;;;4941189;28;20066;-86
2021/12/04 12:56:33;;;;;;;0.17;0.00;;;8.30;99.90;;;;;;4939254;28;20053;-86
2021/12/04 12:59:07;;;;;;;0.10;0.07;;;8.30;99.90;;;;;;4940135;28;20031;-86
2021/12/04 13:13:33;;;;;;;0.20;0.10;;;8.20;99.90;;;;;;4940154;28;20628;-87
2021/12/04 13:16:05;;;;;;;0.65;0.15;;;8.20;99.90;;;;;;4951082;28;20031;-86
2021/12/04 13:18:34;;;;;;;0.43;0.10;;;8.30;99.90;;;;;;4951553;28;20033;-87
2021/12/04 13:21:06;;;;;;;0.30;0.00;;;8.20;99.90;;;;;;4946820;28;20023;-86
2021/12/04 13:23:32;;;;;;;;;;;8.20;99.90;;;;;;4949172;29;20030;-86
2021/12/04 13:26:05;;;;;;;0.80;0.10;;;8.20;99.90;;;;;;4951903;28;19910;-86
2021/12/04 13:28:33;;;;;;;0.17;0.10;;;8.20;99.90;;;;;;4938797;29;20031;-87
2021/12/04 13:31:00;;;;;;;0.13;0.03;;;8.20;99.90;;;;;;4948843;28;20031;-87
2021/12/04 13:33:30;;;;;;;0.30;0.10;;;8.20;99.90;;;;;;4944751;28;20436;-86
2021/12/04 13:35:56;;;;;;;0.00;0.00;;;8.20;99.90;;;;;;4953381;28;20037;-87
2021/12/04 13:38:24;;;;;;;0.93;0.10;;;8.20;99.90;;;;;;4953339;28;20106;-88
2021/12/04 13:40:52;;;;;;;0.20;0.10;;;8.20;99.90;;;;;;4951002;28;20034;-87
2021/12/04 13:43:19;;;;;;;0.10;0.10;;;8.20;99.90;;;;;;4935367;28;20030;-88
2021/12/04 13:45:54;;;;;;;0.60;0.10;;;8.20;99.90;;;;;;4938033;29;20392;-88
2021/12/04 13:48:22;;;;;;;0.10;0.10;;;8.20;99.90;;;;;;4942061;28;20082;-88
2021/12/04 13:50:47;;;;;;;0.40;0.10;;;8.20;99.90;;;;;;4956161;28;20097;-82
2021/12/04 13:53:15;;;;;;;0.27;0.10;;;8.20;99.90;;;;;;4957073;28;20031;-82
2021/12/04 13:55:44;;;;;;;0.20;0.10;;;8.30;99.90;;;;;;4958364;28;20031;-82
2021/12/04 13:58:10;;;;;;;0.40;0.10;;;8.30;99.90;;;;;;4931743;28;20035;-82
2021/12/04 14:00:36;;;;;;;0.17;0.10;;;8.30;99.90;;;;;;4941307;28;20062;-88
2021/12/04 14:03:02;;;;;;;0.57;0.10;;;8.20;99.90;;;;;;4937328;28;20023;-88
2021/12/04 14:05:28;;;;;;;0.30;0.17;;;8.10;99.90;;;;;;4942194;28;20170;-87
2021/12/04 14:07:59;;;;;;;1.47;0.10;;;8.10;99.90;;;;;;4940479;28;20947;-87
2021/12/04 14:10:32;;;;;;;0.77;0.20;;;8.00;99.90;;;;;;4954206;28;20527;-87
2021/12/04 14:13:04;;;;;;;0.80;0.20;;;7.80;99.90;;;;;;4955202;28;20030;-85
2021/12/04 14:15:30;;;;;;;0.20;0.10;;;8.00;99.90;;;;;;4952040;28;20090;-84
2021/12/04 14:18:04;;;;;;;2.07;0.20;;;7.90;99.90;;;;;;4955961;28;20032;-85
2021/12/04 14:20:47;;;;;;;0.87;0.40;;;7.80;99.90;;;;;;4942383;28;20037;-83
2021/12/04 14:23:13;;;;;;;0.50;0.20;;;7.90;99.90;;;;;;4955205;28;20032;-85
2021/12/04 14:25:45;;;;;;;0.73;0.10;;;8.00;99.90;;;;;;4938714;28;20133;-85
2021/12/04 14:28:19;;;;;;;0.57;0.10;;;7.90;99.90;;;;;;4958654;28;20110;-85
2021/12/04 14:30:51;;;;;;;0.83;0.10;;;7.80;99.90;;;;;;4934938;29;20044;-86
2021/12/04 14:33:32;;;;;;;0.43;0.20;;;7.80;99.90;;;;;;4940613;28;20047;-86
2021/12/04 14:36:16;;;;;;;0.40;0.10;;;7.80;99.90;;;;;;4937642;28;20065;-85
2021/12/04 14:38:51;;;;;;;1.30;0.20;;;7.80;99.90;;;;;;4940147;28;20736;-85
2021/12/04 14:41:25;;;;;;;1.60;0.33;;;7.90;99.90;;;;;;4952674;28;20097;-85
2021/12/04 14:43:59;;;;;;;1.70;0.30;;;7.70;99.90;;;;;;4942549;29;20536;-85
2021/12/04 14:46:32;;;;;;;0.70;0.30;;;7.70;99.90;;;;;;4937787;28;20572;-86
2021/12/04 14:49:13;;;;;;;1.03;0.20;;;7.70;99.90;;;;;;4937711;28;20039;-85
2021/12/04 14:51:55;;;;;;;0.20;0.10;;;7.60;99.90;;;;;;4936287;29;20047;-84
2021/12/04 14:54:35;;;;;;;0.30;0.17;;;7.60;99.90;;;;;;4935995;28;20118;-86
2021/12/04 14:57:02;;;;;;;1.00;0.30;;;7.70;99.90;;;;;;4955184;28;20024;-87
2021/12/04 14:59:32;;;;;;;0.40;0.17;;;7.60;99.90;;;;;;4951078;28;20512;-86
2021/12/04 15:01:59;;;;;;;0.50;0.13;;;7.70;99.90;;;;;;4954542;29;20035;-86
2021/12/04 15:04:25;;;;;;;1.50;0.60;;;7.60;99.90;;;;;;4957012;29;20023;-87
2021/12/04 15:06:50;;;;;;;0.70;0.30;;;7.50;99.90;;;;;;4956186;29;20102;-85
2021/12/04 15:09:17;;;;;;;2.10;0.47;;;7.80;99.90;;;;;;4939886;29;20031;-86
2021/12/04 15:11:51;;;;;;;1.30;0.30;;;7.80;99.90;;;;;;4935247;29;20035;-86
2021/12/04 15:14:32;;;;;;;0.87;0.20;;;7.50;99.90;;;;;;4936087;29;20046;-86
2021/12/04 15:17:05;;;;;;;1.13;0.20;;;7.60;99.90;;;;;;4940770;29;20541;-85
2021/12/04 15:19:42;;;;;;;1.17;0.20;;;7.60;99.90;;;;;;4958555;28;20391;-85
2021/12/04 15:22:31;;;;;;;1.07;0.17;;;7.70;99.90;;;;;;4955827;28;20110;-85
2021/12/04 15:24:57;;;;;;;2.03;0.60;;;7.60;99.90;;;;;;4937317;28;20570;-85
2021/12/04 15:27:26;;;;;;;0.53;0.20;;;7.60;99.90;;;;;;4954195;28;20110;-85
2021/12/04 15:29:54;;;;;;;0.60;0.20;;;7.60;99.90;;;;;;4940662;28;20027;-85
2021/12/04 15:32:26;;;;;;;5.60;0.20;;;7.60;99.90;;;;;;4952659;28;20031;-85
2021/12/04 15:35:01;;;;;;;0.57;0.10;;;7.50;99.90;;;;;;4955348;28;20023;-85
2021/12/04 15:37:40;;;;;;;0.10;0.10;;;7.60;99.90;;;;;;4955535;28;20033;-85
2021/12/04 15:40:22;;;;;;;0.93;0.20;;;7.50;99.90;;;;;;4933001;28;20452;-83
2021/12/04 15:42:55;;;;;;;0.50;0.10;;;7.60;99.90;;;;;;4927363;28;20035;-85
2021/12/04 15:54:21;;;;;;;0.20;0.10;;;7.60;99.90;;;;;;4974811;28;20034;-86
2021/12/04 16:11:38;;;;;;;1.00;0.20;;;7.60;99.90;;;;;;4953788;26;20058;-86
2021/12/04 16:14:33;;;;;;;1.00;0.20;;;7.60;99.90;;;;;;4910346;29;20115;-87
2021/12/04 16:17:14;;;;;;;1.07;0.30;;;7.60;99.90;;;;;;4902129;29;20044;-87
2021/12/04 16:22:58;;;;;;;0.60;0.30;;;7.60;99.90;;;;;;4911207;29;20111;-87
2021/12/04 16:25:53;;;;;;;1.33;0.40;;;7.50;99.90;;;;;;4931935;29;20047;-86
2021/12/04 16:37:46;;;;;;;2.17;0.37;;;7.30;99.90;;;;;;4952273;29;20074;-87
2021/12/04 16:40:20;;;;;;;3.63;0.40;;;7.30;99.90;;;;;;4925963;29;20036;-87
2021/12/04 16:45:52;;;;;;;2.70;0.47;;;7.30;99.90;;;;;;4953241;29;20039;-87
2021/12/04 16:48:28;;;;;;;1.20;0.30;;;7.30;99.90;;;;;;4951341;29;20400;-87
2021/12/04 16:59:12;;;;;;;0.73;0.20;;;7.40;99.90;;;;;;4945234;29;20468;-86
2021/12/04 17:01:46;;;;;;;1.50;0.50;;;7.40;99.90;;;;;;4930950;28;20504;-88
2021/12/04 17:04:15;;;;;;;0.83;0.30;;;7.30;99.90;;;;;;4947560;28;20027;-86
2021/12/04 17:06:45;;;;;;;0.93;0.30;;;7.30;99.90;;;;;;4956673;28;20035;-88
2021/12/04 17:09:11;;;;;;;1.77;0.60;;;7.40;99.90;;;;;;4969833;28;20579;-88
2021/12/04 17:11:37;;;;;;;1.50;0.50;;;7.30;99.90;;;;;;4936357;29;20125;-87
2021/12/04 17:14:03;;;;;;;1.30;0.37;;;7.30;99.90;;;;;;4962167;28;20078;-87
2021/12/04 17:16:32;;;;;;;0.77;0.30;;;7.60;99.90;;;;;;4940597;28;20051;-88
2021/12/04 17:19:07;;;;;;;1.03;0.30;;;7.40;99.90;;;;;;4970414;28;20101;-86